Time;durP1;ratioP1;P1;durP2;ratioP2;P2;SDS_P1;SDS_P2;PMS_P1;PMS_P2;Temp;Humidity;BMP_temperature;BMP_pressure;BME280_temperature;BME280_humidity;BME280_pressure;Samples;Min_cycle;Max_cycle;Signal;HPM_P1;HPM_P2
2022/04/23 00:01:43;;;;;;;11.02;5.55;;;14.50;94.90;;;;;;5041206;28;20116;-92
2022/04/23 00:04:10;;;;;;;7.03;5.70;;;14.50;94.90;;;;;;5041244;28;20436;-92
2022/04/23 00:06:37;;;;;;;8.00;5.10;;;14.50;94.90;;;;;;5040839;28;20051;-92
2022/04/23 00:09:04;;;;;;;9.43;5.57;;;14.50;94.90;;;;;;5041123;28;20029;-92
2022/04/23 00:11:30;;;;;;;8.40;4.93;;;14.50;94.90;;;;;;5041336;28;20067;-92
2022/04/23 00:13:56;;;;;;;7.63;4.78;;;14.50;94.90;;;;;;5040941;28;20079;-92
2022/04/23 00:16:22;;;;;;;6.22;5.05;;;14.50;94.90;;;;;;5058220;28;20021;-93
2022/04/23 00:18:48;;;;;;;6.95;5.28;;;14.50;94.80;;;;;;5040990;28;20028;-92
2022/04/23 00:21:14;;;;;;;6.10;4.95;;;14.40;94.80;;;;;;5040821;28;20025;-92
2022/04/23 00:23:40;;;;;;;7.20;5.40;;;14.50;94.80;;;;;;5023859;28;20110;-92
2022/04/23 00:26:06;;;;;;;10.00;5.80;;;14.40;94.80;;;;;;5004835;28;20443;-92
2022/04/23 00:28:32;;;;;;;7.05;5.25;;;14.40;94.80;;;;;;5021307;28;20072;-93
2022/04/23 00:30:58;;;;;;;9.25;5.50;;;14.40;94.80;;;;;;5020834;28;20485;-93
2022/04/23 00:33:23;;;;;;;7.43;5.57;;;14.40;94.90;;;;;;5020697;28;20032;-92
2022/04/23 00:35:50;;;;;;;11.55;5.32;;;14.40;94.90;;;;;;5020143;28;20025;-92
2022/04/23 00:38:16;;;;;;;8.52;5.47;;;14.30;94.80;;;;;;5038406;28;20392;-92
2022/04/23 00:40:43;;;;;;;10.38;5.07;;;14.30;94.80;;;;;;5020148;28;20024;-92
2022/04/23 00:43:25;;;;;;;8.80;5.50;;;14.30;94.80;;;;;;5020466;28;20029;-92
2022/04/23 00:45:51;;;;;;;7.15;5.38;;;14.30;94.80;;;;;;5020473;28;20022;-92
2022/04/23 00:48:17;;;;;;;7.75;4.75;;;14.30;94.80;;;;;;5020832;28;20037;-92
2022/04/23 00:50:43;;;;;;;7.40;4.90;;;14.40;94.80;;;;;;5020951;28;20377;-92
2022/04/23 00:53:09;;;;;;;8.23;5.30;;;14.30;94.80;;;;;;5020425;28;20386;-92
2022/04/23 00:55:36;;;;;;;12.23;5.63;;;14.30;95.10;;;;;;5037960;28;20466;-92
2022/04/23 00:58:02;;;;;;;7.63;5.40;;;14.30;94.80;;;;;;5019939;28;20025;-92
2022/04/23 01:00:28;;;;;;;7.45;5.95;;;14.30;94.80;;;;;;5037438;28;20101;-92
2022/04/23 01:02:55;;;;;;;8.45;5.30;;;14.30;94.80;;;;;;5019946;28;20392;-93
2022/04/23 01:05:24;;;;;;;6.78;5.68;;;14.30;94.80;;;;;;5019955;28;20056;-92
2022/04/23 01:07:52;;;;;;;6.07;5.38;;;14.30;94.70;;;;;;5019461;28;20057;-92
2022/04/23 01:10:19;;;;;;;10.85;5.68;;;14.20;94.70;;;;;;5019493;28;20035;-92
2022/04/23 01:12:46;;;;;;;7.28;5.70;;;14.20;94.70;;;;;;5018792;28;20036;-92
2022/04/23 01:15:13;;;;;;;8.48;6.30;;;14.20;94.70;;;;;;5019000;28;20028;-92
2022/04/23 01:17:40;;;;;;;8.80;6.00;;;14.20;94.70;;;;;;5018836;28;20022;-92
2022/04/23 01:20:09;;;;;;;10.13;5.10;;;14.20;94.70;;;;;;5019048;28;20056;-92
2022/04/23 01:22:37;;;;;;;6.68;5.40;;;14.20;94.70;;;;;;5019032;28;20094;-92
2022/04/23 01:25:07;;;;;;;8.30;6.10;;;14.20;94.70;;;;;;5019240;28;20030;-92
2022/04/23 01:27:34;;;;;;;7.93;6.13;;;14.20;94.70;;;;;;5018850;28;20120;-92
2022/04/23 01:30:01;;;;;;;8.82;6.38;;;14.20;94.70;;;;;;5035961;28;20504;-92
2022/04/23 01:32:28;;;;;;;10.40;6.40;;;14.10;94.60;;;;;;5018453;28;20067;-93
2022/04/23 01:34:53;;;;;;;8.38;6.10;;;14.10;94.60;;;;;;5018259;28;20030;-92
2022/04/23 01:37:19;;;;;;;8.00;5.72;;;14.10;95.00;;;;;;5017967;28;20374;-92
2022/04/23 01:39:47;;;;;;;8.63;6.22;;;14.10;94.70;;;;;;5018461;28;20095;-92
2022/04/23 01:42:13;;;;;;;7.30;5.97;;;14.10;94.60;;;;;;5018681;28;20108;-92
2022/04/23 01:44:39;;;;;;;9.77;6.13;;;14.10;94.60;;;;;;5018633;28;20060;-92
2022/04/23 01:47:05;;;;;;;9.80;7.00;;;14.10;94.60;;;;;;5017539;28;20036;-93
2022/04/23 01:49:31;;;;;;;9.40;6.65;;;14.10;94.60;;;;;;5017674;28;20025;-92
2022/04/23 01:51:56;;;;;;;10.27;5.85;;;14.10;94.60;;;;;;5017318;28;20025;-92
2022/04/23 01:54:22;;;;;;;10.57;6.18;;;14.10;94.50;;;;;;5017751;28;20104;-92
2022/04/23 01:56:48;;;;;;;7.93;6.18;;;14.00;94.50;;;;;;5018026;28;20063;-92
2022/04/23 01:59:14;;;;;;;11.23;5.88;;;14.10;94.50;;;;;;5017966;28;20021;-92
2022/04/23 02:01:41;;;;;;;9.23;6.35;;;14.10;94.50;;;;;;5035470;28;20036;-92
2022/04/23 02:04:07;;;;;;;8.40;5.90;;;14.00;94.40;;;;;;5017238;28;20124;-92
2022/04/23 02:06:36;;;;;;;8.40;6.50;;;14.00;94.40;;;;;;5017443;28;20063;-92
2022/04/23 02:09:02;;;;;;;9.80;6.22;;;14.00;94.40;;;;;;5017750;28;20021;-93
2022/04/23 02:11:28;;;;;;;8.52;6.28;;;14.00;94.30;;;;;;5017465;28;20048;-92
2022/04/23 02:13:54;;;;;;;11.55;6.82;;;14.00;94.30;;;;;;5018246;28;20129;-92
2022/04/23 02:16:20;;;;;;;8.98;6.55;;;14.00;94.30;;;;;;5036496;28;20053;-92
2022/04/23 02:18:46;;;;;;;9.23;7.28;;;14.00;94.30;;;;;;5017698;28;20052;-93
2022/04/23 02:21:12;;;;;;;8.18;6.30;;;14.00;94.30;;;;;;5017604;28;20024;-92
2022/04/23 02:23:38;;;;;;;10.35;6.50;;;13.90;94.30;;;;;;5016798;28;20124;-92
2022/04/23 02:26:04;;;;;;;11.40;6.45;;;13.90;94.30;;;;;;5017702;28;20098;-92
2022/04/23 02:28:30;;;;;;;9.25;6.50;;;13.90;94.30;;;;;;5034329;28;20394;-92
2022/04/23 02:30:57;;;;;;;9.35;6.35;;;13.90;94.40;;;;;;5017396;28;20029;-92
2022/04/23 02:33:23;;;;;;;7.80;6.20;;;13.90;94.40;;;;;;5017673;28;20480;-92
2022/04/23 02:35:50;;;;;;;9.18;6.35;;;13.90;94.40;;;;;;5018200;28;20151;-93
2022/04/23 02:38:17;;;;;;;9.30;6.28;;;13.90;94.40;;;;;;5017540;28;20028;-93
2022/04/23 02:40:43;;;;;;;10.45;6.30;;;13.90;94.40;;;;;;5017734;28;20113;-93
2022/04/23 02:43:12;;;;;;;8.98;5.68;;;13.80;94.30;;;;;;5018159;28;20480;-93
2022/04/23 02:45:38;;;;;;;8.70;6.75;;;13.80;94.30;;;;;;5018067;28;20029;-92
2022/04/23 02:48:04;;;;;;;10.00;6.70;;;13.80;94.30;;;;;;5017680;28;20030;-92
2022/04/23 02:50:38;;;;;;;7.30;6.13;;;13.80;94.30;;;;;;5017207;28;20037;-91
2022/04/23 02:53:05;;;;;;;7.60;6.28;;;13.80;94.30;;;;;;5017660;28;20021;-92
2022/04/23 02:55:33;;;;;;;7.88;5.78;;;13.80;94.30;;;;;;5017737;28;20033;-92
2022/04/23 02:58:04;;;;;;;9.07;5.72;;;13.80;94.30;;;;;;5019158;28;20033;-92
2022/04/23 03:00:30;;;;;;;7.47;5.65;;;13.80;94.20;;;;;;5022289;28;20029;-92
2022/04/23 03:02:56;;;;;;;9.75;6.53;;;13.80;94.20;;;;;;5021848;28;20538;-92
2022/04/23 03:05:22;;;;;;;10.15;6.22;;;13.80;94.20;;;;;;5021684;28;20105;-92
2022/04/23 03:07:48;;;;;;;7.28;6.10;;;13.70;94.20;;;;;;5021980;28;20094;-92
2022/04/23 03:10:16;;;;;;;8.88;6.20;;;13.70;94.20;;;;;;5021744;28;20560;-93
2022/04/23 03:12:44;;;;;;;9.35;6.63;;;13.70;94.20;;;;;;5022242;28;20116;-92
2022/04/23 03:15:13;;;;;;;8.07;6.28;;;13.70;94.20;;;;;;5021338;28;20026;-92
2022/04/23 03:17:39;;;;;;;9.10;6.13;;;13.70;94.20;;;;;;5021146;28;20366;-92
2022/04/23 03:20:07;;;;;;;8.18;5.97;;;13.70;94.20;;;;;;5021349;28;20025;-92
2022/04/23 03:22:33;;;;;;;8.65;6.07;;;13.70;94.20;;;;;;5022087;28;20049;-93
2022/04/23 03:24:59;;;;;;;7.13;6.10;;;13.70;94.20;;;;;;5022505;28;20393;-92
2022/04/23 03:27:25;;;;;;;8.50;6.20;;;13.70;94.20;;;;;;5021552;28;20485;-93
2022/04/23 03:29:50;;;;;;;8.02;6.80;;;13.70;94.20;;;;;;5022656;28;20026;-93
2022/04/23 03:32:17;;;;;;;8.77;6.60;;;13.70;94.20;;;;;;5023477;28;20112;-92
2022/04/23 03:34:43;;;;;;;7.22;6.18;;;13.60;94.20;;;;;;5024849;28;20025;-94
2022/04/23 03:37:09;;;;;;;9.23;6.05;;;13.60;94.20;;;;;;5024359;28;20041;-93
2022/04/23 03:39:36;;;;;;;8.27;6.20;;;13.60;94.20;;;;;;5022752;28;20495;-92
2022/04/23 03:42:02;;;;;;;8.30;5.97;;;13.60;94.10;;;;;;5022910;28;20026;-93
2022/04/23 03:44:31;;;;;;;8.13;5.90;;;13.60;94.10;;;;;;5022291;28;20026;-93
2022/04/23 03:47:03;;;;;;;7.97;6.18;;;13.60;94.10;;;;;;5023537;28;20033;-93
2022/04/23 03:49:29;;;;;;;9.68;6.10;;;13.60;94.10;;;;;;5024649;28;20026;-93
2022/04/23 03:51:56;;;;;;;8.52;6.43;;;13.50;94.00;;;;;;5024343;28;20477;-93
2022/04/23 03:54:22;;;;;;;10.00;5.93;;;13.50;94.00;;;;;;5024424;28;20029;-93
2022/04/23 03:56:48;;;;;;;10.23;6.55;;;13.50;94.00;;;;;;5023820;28;20029;-92
2022/04/23 03:59:14;;;;;;;7.95;6.40;;;13.50;94.00;;;;;;5024266;28;20172;-93
2022/04/23 04:01:43;;;;;;;8.95;6.57;;;13.50;94.00;;;;;;5023010;28;20483;-94
2022/04/23 04:04:10;;;;;;;11.93;6.88;;;13.50;94.00;;;;;;5023043;28;20056;-93
2022/04/23 04:06:35;;;;;;;7.75;6.70;;;13.50;94.10;;;;;;5020969;28;20440;-93
2022/04/23 04:09:01;;;;;;;7.13;6.15;;;13.50;94.40;;;;;;5021563;28;20025;-93
2022/04/23 04:12:00;;;;;;;9.82;7.25;;;13.50;94.00;;;;;;5021403;28;20120;-93
2022/04/23 04:14:12;;;;;;;8.57;6.60;;;13.50;94.00;;;;;;5039668;28;20056;-93
2022/04/23 04:16:38;;;;;;;10.70;6.78;;;13.50;94.30;;;;;;5021575;28;20025;-93
2022/04/23 04:19:04;;;;;;;8.70;6.28;;;13.40;93.90;;;;;;5022018;28;20048;-92
2022/04/23 04:21:29;;;;;;;8.60;6.68;;;13.40;94.00;;;;;;5021826;28;20068;-92
2022/04/23 04:23:56;;;;;;;12.52;6.72;;;13.40;93.90;;;;;;5021309;28;20046;-93
2022/04/23 04:26:22;;;;;;;9.18;6.32;;;13.40;93.90;;;;;;5021561;28;20476;-92
2022/04/23 04:28:47;;;;;;;7.55;6.05;;;13.40;93.90;;;;;;5021354;28;20029;-92
2022/04/23 04:33:57;;;;;;;8.05;6.70;;;13.40;93.90;;;;;;5039380;28;20120;-93
2022/04/23 04:36:23;;;;;;;9.57;6.70;;;13.40;93.90;;;;;;5022178;28;20065;-93
2022/04/23 04:38:48;;;;;;;10.25;6.60;;;13.40;93.80;;;;;;5023527;28;20025;-93
2022/04/23 04:41:14;;;;;;;8.38;6.47;;;13.40;93.80;;;;;;5021300;28;20116;-93
2022/04/23 04:43:40;;;;;;;11.18;6.88;;;13.40;93.80;;;;;;5020965;28;20029;-93
2022/04/23 04:46:05;;;;;;;9.65;6.63;;;13.40;93.80;;;;;;5019745;28;20025;-93
2022/04/23 04:48:31;;;;;;;9.32;7.20;;;13.40;93.80;;;;;;5018880;28;20025;-93
2022/04/23 04:50:57;;;;;;;9.75;6.38;;;13.40;93.80;;;;;;5019682;28;20413;-92
2022/04/23 04:53:22;;;;;;;9.88;6.95;;;13.40;93.80;;;;;;5019617;28;20483;-92
2022/04/23 04:55:48;;;;;;;11.32;6.35;;;13.40;93.80;;;;;;5018678;28;20017;-93
2022/04/23 04:58:13;;;;;;;9.80;6.85;;;13.40;93.70;;;;;;5019261;28;20075;-93
2022/04/23 05:00:39;;;;;;;10.77;6.60;;;13.40;93.80;;;;;;5019251;28;20057;-93
2022/04/23 05:03:05;;;;;;;9.45;7.00;;;13.40;93.80;;;;;;5018772;28;20026;-93
2022/04/23 05:05:30;;;;;;;10.23;6.63;;;13.40;93.70;;;;;;5018343;28;20028;-92
2022/04/23 05:07:56;;;;;;;9.77;6.53;;;13.40;93.80;;;;;;5018238;28;20022;-93
2022/04/23 05:10:22;;;;;;;7.20;5.82;;;13.40;93.80;;;;;;5018761;28;20493;-94
2022/04/23 05:12:48;;;;;;;6.95;5.47;;;13.40;93.80;;;;;;5018534;28;20021;-93
2022/04/23 05:15:13;;;;;;;9.52;6.60;;;13.40;93.80;;;;;;5019785;28;20465;-93
2022/04/23 05:17:39;;;;;;;8.75;6.70;;;13.40;93.80;;;;;;5018988;28;20021;-94
2022/04/23 05:20:05;;;;;;;7.53;5.63;;;13.40;93.80;;;;;;5018454;28;20025;-93
2022/04/23 05:22:31;;;;;;;9.90;6.43;;;13.40;93.80;;;;;;5018191;28;20049;-93
2022/04/23 05:24:57;;;;;;;7.95;6.13;;;13.40;93.80;;;;;;5018606;28;20033;-93
2022/04/23 05:27:26;;;;;;;8.30;5.97;;;13.40;93.70;;;;;;5018944;28;20026;-93
2022/04/23 05:29:51;;;;;;;7.68;6.07;;;13.40;93.80;;;;;;5018307;28;20025;-93
2022/04/23 05:32:17;;;;;;;7.95;5.93;;;13.40;93.80;;;;;;5019011;28;20443;-93
2022/04/23 05:34:43;;;;;;;8.63;6.35;;;13.40;93.80;;;;;;5018473;28;20083;-92
2022/04/23 05:37:09;;;;;;;6.68;5.47;;;13.40;93.80;;;;;;5018977;28;20477;-93
2022/04/23 05:39:35;;;;;;;6.85;5.68;;;13.40;93.70;;;;;;5018857;28;20025;-93
2022/04/23 05:42:00;;;;;;;8.40;6.05;;;13.40;93.80;;;;;;5018856;28;20022;-93
2022/04/23 05:44:26;;;;;;;7.32;5.50;;;13.40;93.70;;;;;;5018793;28;20437;-93
2022/04/23 05:46:52;;;;;;;9.88;5.82;;;13.50;93.80;;;;;;5019902;28;20029;-89
2022/04/23 05:49:18;;;;;;;8.65;5.95;;;13.40;93.80;;;;;;5018217;28;20033;-93
2022/04/23 05:51:44;;;;;;;9.02;6.13;;;13.50;93.80;;;;;;5038081;28;20021;-93
2022/04/23 05:54:09;;;;;;;7.35;5.85;;;13.50;93.80;;;;;;5022086;28;20122;-93
2022/04/23 05:56:35;;;;;;;7.53;5.63;;;13.50;93.80;;;;;;5023358;28;20022;-93
2022/04/23 05:59:01;;;;;;;7.78;5.93;;;13.50;93.80;;;;;;5019275;28;20076;-93
2022/04/23 06:01:27;;;;;;;8.50;5.60;;;13.50;93.80;;;;;;5021026;28;20087;-93
2022/04/23 06:03:52;;;;;;;9.02;6.43;;;13.50;93.90;;;;;;5022189;28;20026;-93
2022/04/23 06:06:19;;;;;;;6.45;5.65;;;13.50;93.90;;;;;;5022181;28;20047;-93
2022/04/23 06:08:45;;;;;;;8.88;5.90;;;13.50;94.00;;;;;;5022705;28;20481;-93
2022/04/23 06:11:11;;;;;;;7.32;5.45;;;13.40;94.00;;;;;;5019497;28;20116;-92
2022/04/23 06:13:36;;;;;;;6.53;5.57;;;13.50;94.10;;;;;;5018330;28;20032;-93
2022/04/23 06:16:02;;;;;;;5.75;5.05;;;13.50;94.20;;;;;;5017897;28;20021;-92
2022/04/23 06:18:28;;;;;;;9.18;5.85;;;13.50;94.20;;;;;;5018146;28;20117;-92
2022/04/23 06:20:53;;;;;;;8.50;5.95;;;13.50;94.30;;;;;;5017781;28;20120;-93
2022/04/23 06:23:19;;;;;;;7.00;5.70;;;13.50;94.40;;;;;;5017469;28;20045;-93
2022/04/23 06:25:45;;;;;;;6.55;5.38;;;13.50;94.60;;;;;;5017230;28;20060;-92
2022/04/23 06:28:10;;;;;;;8.65;6.10;;;13.50;94.60;;;;;;5017295;28;20029;-93
2022/04/23 06:30:38;;;;;;;7.55;5.13;;;13.50;94.70;;;;;;5018175;28;20121;-92
2022/04/23 06:33:04;;;;;;;6.97;5.65;;;13.50;94.80;;;;;;5018129;28;20027;-92
2022/04/23 06:35:30;;;;;;;6.90;5.22;;;13.50;94.70;;;;;;5017495;28;20481;-93
2022/04/23 06:37:57;;;;;;;6.60;5.22;;;13.50;94.70;;;;;;5017727;28;20515;-92
2022/04/23 06:40:23;;;;;;;6.65;5.40;;;13.50;94.80;;;;;;5016774;28;20052;-92
2022/04/23 06:42:49;;;;;;;6.43;5.55;;;13.50;95.00;;;;;;5016939;28;20029;-92
2022/04/23 06:45:14;;;;;;;6.68;5.35;;;13.50;95.10;;;;;;5016455;28;20032;-92
2022/04/23 06:47:40;;;;;;;7.00;5.25;;;13.50;95.20;;;;;;5016556;28;20029;-92
2022/04/23 06:50:07;;;;;;;7.38;5.40;;;13.50;95.30;;;;;;5016121;28;20029;-92
2022/04/23 06:52:32;;;;;;;6.00;5.40;;;13.50;95.40;;;;;;5017063;28;20033;-93
2022/04/23 06:54:58;;;;;;;6.38;5.30;;;13.50;95.50;;;;;;5016428;28;20072;-93
2022/04/23 06:57:24;;;;;;;6.28;5.47;;;13.50;95.60;;;;;;5034355;28;20044;-94
2022/04/23 06:59:51;;;;;;;8.43;5.45;;;13.50;95.80;;;;;;5016270;28;20028;-93
2022/04/23 07:02:21;;;;;;;9.13;5.60;;;13.50;96.00;;;;;;5016255;28;20028;-93
2022/04/23 07:04:46;;;;;;;6.65;5.13;;;13.50;96.10;;;;;;5034181;28;20025;-93
2022/04/23 07:07:12;;;;;;;6.03;5.40;;;13.50;96.20;;;;;;5017110;28;20021;-93
2022/04/23 07:09:38;;;;;;;7.28;6.07;;;13.50;96.40;;;;;;5016646;28;20505;-94
2022/04/23 07:12:05;;;;;;;6.63;5.63;;;13.40;96.40;;;;;;5016864;28;20392;-93
2022/04/23 07:14:32;;;;;;;7.38;5.40;;;13.40;96.50;;;;;;5016741;28;20049;-93
2022/04/23 07:16:58;;;;;;;6.40;5.43;;;13.40;96.50;;;;;;5016900;28;20034;-93
2022/04/23 07:19:23;;;;;;;6.43;5.47;;;13.40;96.50;;;;;;5016613;28;20022;-94
2022/04/23 07:21:49;;;;;;;6.82;5.75;;;13.50;96.80;;;;;;5017587;28;20021;-93
2022/04/23 07:24:15;;;;;;;6.78;5.78;;;13.50;96.70;;;;;;5037363;28;20059;-93
2022/04/23 07:26:42;;;;;;;5.95;5.03;;;13.50;96.50;;;;;;5037757;28;20102;-93
2022/04/23 07:29:10;;;;;;;8.35;5.03;;;13.50;96.60;;;;;;5037105;28;20047;-94
2022/04/23 07:31:37;;;;;;;5.97;5.35;;;13.50;96.60;;;;;;5039195;28;20063;-94
2022/04/23 07:39:33;;;;;;;;;;;13.50;96.70;;;;;;5057622;28;20036;-95
2022/04/23 07:41:58;;;;;;;6.53;4.97;;;13.50;96.70;;;;;;5039762;28;19909;-94
2022/04/23 07:44:25;;;;;;;7.28;5.38;;;13.50;96.80;;;;;;5057507;28;20481;-94
2022/04/23 07:46:51;;;;;;;6.85;4.63;;;13.50;96.70;;;;;;5043874;28;20086;-94
2022/04/23 07:49:17;;;;;;;5.63;5.03;;;13.50;96.70;;;;;;5043714;28;20032;-93
2022/04/23 07:51:46;;;;;;;5.53;4.18;;;13.50;96.80;;;;;;5043312;28;20036;-94
2022/04/23 07:54:13;;;;;;;6.28;4.75;;;13.50;96.80;;;;;;5042080;28;20071;-94
2022/04/23 07:56:39;;;;;;;5.38;4.45;;;13.50;96.70;;;;;;5043302;28;20025;-94
2022/04/23 07:59:05;;;;;;;6.38;5.13;;;13.60;96.90;;;;;;5042919;28;20025;-95
2022/04/23 08:01:31;;;;;;;7.10;4.65;;;13.60;97.00;;;;;;5041038;28;20329;-94
2022/04/23 08:04:02;;;;;;;5.32;4.50;;;13.60;97.00;;;;;;5041620;28;20040;-94
2022/04/23 08:06:28;;;;;;;5.45;4.55;;;13.60;96.90;;;;;;5041530;28;20033;-95
2022/04/23 08:08:54;;;;;;;5.72;4.30;;;13.60;97.00;;;;;;5039845;28;20025;-95
2022/04/23 08:11:22;;;;;;;5.35;4.45;;;13.60;96.90;;;;;;5040644;28;20029;-94
2022/04/23 08:13:50;;;;;;;4.97;4.10;;;13.60;96.90;;;;;;5025411;28;20451;-95
2022/04/23 08:16:15;;;;;;;5.00;3.72;;;13.60;96.90;;;;;;5039560;28;20461;-95
2022/04/23 08:18:41;;;;;;;4.45;4.05;;;13.60;96.90;;;;;;5038902;28;20023;-95
2022/04/23 08:21:07;;;;;;;6.85;4.15;;;13.70;96.90;;;;;;5023486;28;20060;-95
2022/04/23 08:23:33;;;;;;;4.22;3.83;;;13.70;97.00;;;;;;5041013;28;20053;-95
2022/04/23 08:26:03;;;;;;;4.20;3.80;;;13.70;97.00;;;;;;5039101;28;20051;-95
2022/04/23 08:31:13;;;;;;;5.38;3.55;;;13.70;97.10;;;;;;5056968;28;20032;-95
2022/04/23 08:36:23;;;;;;;6.97;3.83;;;13.70;97.10;;;;;;5057667;28;20104;-93
2022/04/23 08:38:49;;;;;;;6.97;3.67;;;13.70;97.20;;;;;;5039179;28;20065;-94
2022/04/23 08:41:14;;;;;;;3.95;3.55;;;13.70;97.10;;;;;;5038128;28;20469;-94
2022/04/23 08:43:43;;;;;;;4.38;3.85;;;13.70;97.20;;;;;;5038182;28;20031;-95
2022/04/23 08:46:11;;;;;;;4.70;4.15;;;13.70;97.20;;;;;;5038360;28;20025;-94
2022/04/23 08:48:38;;;;;;;5.50;4.03;;;13.70;97.20;;;;;;5038088;28;20024;-94
2022/04/23 08:51:10;;;;;;;4.78;4.28;;;13.70;97.20;;;;;;5055595;28;20029;-94
2022/04/23 08:53:40;;;;;;;4.65;4.00;;;13.70;97.20;;;;;;5038789;28;20436;-95
2022/04/23 08:56:07;;;;;;;4.75;4.05;;;13.70;97.20;;;;;;5037845;28;20035;-94
2022/04/23 08:58:33;;;;;;;5.22;4.72;;;13.80;97.20;;;;;;5037959;28;20029;-95
2022/04/23 09:00:58;;;;;;;6.85;4.45;;;13.80;97.30;;;;;;5038020;28;20051;-95
2022/04/23 09:03:24;;;;;;;5.65;4.47;;;13.80;97.30;;;;;;5038003;28;20025;-95
2022/04/23 09:05:54;;;;;;;5.05;4.40;;;13.80;97.30;;;;;;5055699;28;20450;-94
2022/04/23 09:08:20;;;;;;;6.00;4.53;;;13.90;97.40;;;;;;5038373;28;20201;-94
2022/04/23 09:10:54;;;;;;;5.20;3.88;;;13.90;97.50;;;;;;5037740;28;20025;-95
2022/04/23 09:13:27;;;;;;;8.43;6.30;;;13.90;97.40;;;;;;5055975;28;20029;-92
2022/04/23 09:24:48;;;;;;;7.32;5.60;;;13.60;99.00;;;;;;5056045;28;20044;-94
2022/04/23 09:27:15;;;;;;;6.53;5.45;;;13.70;98.90;;;;;;5037505;28;20029;-94
2022/04/23 09:29:46;;;;;;;10.07;5.45;;;13.80;98.80;;;;;;5037891;28;20033;-91
2022/04/23 09:32:14;;;;;;;5.78;5.20;;;13.80;98.60;;;;;;5037546;28;20025;-94
2022/04/23 09:34:41;;;;;;;5.95;5.35;;;13.90;98.50;;;;;;5037241;28;20499;-95
2022/04/23 09:37:08;;;;;;;6.15;4.75;;;13.90;98.40;;;;;;5038623;28;20461;-95
2022/04/23 09:39:36;;;;;;;5.88;5.25;;;13.90;98.30;;;;;;5038051;28;20472;-94
2022/04/23 09:42:15;;;;;;;8.32;6.95;;;14.00;98.30;;;;;;5042111;28;20021;-93
2022/04/23 09:44:41;;;;;;;9.07;6.38;;;13.90;99.10;;;;;;5037266;28;20515;-95
2022/04/23 09:47:07;;;;;;;7.63;6.28;;;13.80;99.10;;;;;;5036820;28;20032;-93
2022/04/23 09:49:34;;;;;;;7.70;6.50;;;13.80;99.00;;;;;;5037307;28;20114;-92
2022/04/23 09:52:09;;;;;;;7.35;5.82;;;13.80;99.00;;;;;;5037407;28;20124;-93
2022/04/23 09:54:36;;;;;;;6.35;5.43;;;13.80;98.80;;;;;;5037192;28;20029;-92
2022/04/23 09:57:03;;;;;;;6.30;5.70;;;13.90;98.70;;;;;;5038085;28;20048;-94
2022/04/23 09:59:29;;;;;;;6.95;5.90;;;13.90;98.60;;;;;;5037401;28;20082;-93
2022/04/23 10:01:55;;;;;;;7.82;5.70;;;14.00;98.60;;;;;;5036941;28;20028;-93
2022/04/23 10:04:26;;;;;;;8.02;4.93;;;14.00;98.50;;;;;;5036766;28;20094;-93
2022/04/23 10:06:52;;;;;;;6.85;5.50;;;14.00;98.50;;;;;;5036360;28;20029;-93
2022/04/23 10:09:30;;;;;;;8.43;5.25;;;14.00;98.40;;;;;;5036727;28;20121;-93
2022/04/23 10:12:04;;;;;;;5.53;4.95;;;14.00;98.40;;;;;;5037573;28;20036;-93
2022/04/23 10:14:46;;;;;;;6.60;5.85;;;14.00;98.30;;;;;;5036972;28;20029;-93
2022/04/23 10:17:16;;;;;;;6.28;5.20;;;14.00;98.30;;;;;;5037143;28;20107;-93
2022/04/23 10:19:43;;;;;;;6.00;5.40;;;14.00;98.20;;;;;;5036626;28;20028;-93
2022/04/23 10:22:32;;;;;;;6.22;4.82;;;14.00;98.20;;;;;;5036280;28;20040;-93
2022/04/23 10:25:24;;;;;;;7.57;5.03;;;14.00;98.20;;;;;;5036635;28;20043;-93
2022/04/23 10:27:51;;;;;;;5.97;5.30;;;13.90;98.10;;;;;;5037048;28;20031;-93
2022/04/23 10:30:17;;;;;;;5.75;5.15;;;14.00;98.20;;;;;;5037058;28;20043;-93
2022/04/23 10:32:43;;;;;;;5.78;4.80;;;14.00;98.20;;;;;;5036459;28;20477;-93
2022/04/23 10:35:18;;;;;;;5.82;5.20;;;14.00;98.20;;;;;;5036456;28;20132;-94
2022/04/23 10:37:51;;;;;;;5.82;5.22;;;14.00;98.20;;;;;;5036308;28;20025;-95
2022/04/23 10:40:18;;;;;;;6.05;5.35;;;14.00;98.20;;;;;;5036364;28;20025;-92
2022/04/23 10:43:12;;;;;;;5.03;4.50;;;14.00;98.10;;;;;;5036301;28;20044;-93
2022/04/23 10:45:40;;;;;;;5.53;4.90;;;14.00;98.10;;;;;;5036306;28;20025;-94
2022/04/23 10:48:24;;;;;;;6.78;4.53;;;14.00;98.10;;;;;;5036994;28;20025;-93
2022/04/23 10:51:04;;;;;;;7.63;5.13;;;14.00;98.40;;;;;;5036266;28;20551;-93
2022/04/23 10:53:37;;;;;;;6.30;5.32;;;13.90;98.10;;;;;;5036256;28;20021;-94
2022/04/23 10:56:07;;;;;;;6.82;5.20;;;13.90;98.10;;;;;;5037017;28;20464;-94
2022/04/23 10:58:33;;;;;;;5.93;4.82;;;13.90;98.10;;;;;;5036092;28;20032;-93
2022/04/23 11:01:29;;;;;;;5.90;5.25;;;13.90;98.10;;;;;;5035897;28;20025;-93
2022/04/23 11:03:55;;;;;;;5.70;4.85;;;13.90;98.20;;;;;;5036082;28;20151;-93
2022/04/23 11:12:28;;;;;;;6.05;4.97;;;13.90;98.20;;;;;;5054606;28;20086;-92
2022/04/23 11:14:56;;;;;;;6.57;4.97;;;13.90;98.20;;;;;;5036853;28;20091;-93
2022/04/23 11:17:24;;;;;;;7.68;5.32;;;13.90;98.20;;;;;;5036374;28;20025;-94
2022/04/23 11:19:53;;;;;;;6.75;4.97;;;13.90;98.20;;;;;;5056363;28;20021;-94
2022/04/23 11:22:22;;;;;;;5.63;5.03;;;13.90;98.20;;;;;;5057393;28;20106;-94
2022/04/23 11:24:49;;;;;;;5.55;4.90;;;13.90;98.20;;;;;;5039623;28;20021;-93
2022/04/23 11:27:26;;;;;;;7.68;5.75;;;13.90;98.20;;;;;;5057155;28;20028;-93
2022/04/23 11:29:55;;;;;;;5.68;4.47;;;13.90;98.20;;;;;;5039293;28;20017;-93
2022/04/23 11:32:32;;;;;;;7.40;5.53;;;14.00;98.20;;;;;;5056758;28;20482;-93
2022/04/23 11:34:58;;;;;;;7.85;5.82;;;14.00;98.20;;;;;;5040000;28;20029;-94
2022/04/23 11:37:36;;;;;;;7.20;5.30;;;14.00;98.20;;;;;;5023159;28;20029;-93
2022/04/23 11:40:13;;;;;;;6.05;4.97;;;14.10;98.10;;;;;;5039388;28;20492;-92
2022/04/23 11:42:42;;;;;;;7.18;5.15;;;14.10;98.00;;;;;;5039331;28;20111;-92
2022/04/23 11:45:10;;;;;;;8.95;5.55;;;14.10;98.00;;;;;;5039463;28;20021;-93
2022/04/23 11:47:36;;;;;;;5.32;4.60;;;14.10;98.10;;;;;;5039239;28;20384;-94
2022/04/23 11:50:22;;;;;;;7.13;5.05;;;14.10;98.00;;;;;;5039487;28;20017;-93
2022/04/23 11:52:59;;;;;;;6.50;5.28;;;14.10;98.00;;;;;;5039076;28;20021;-93
2022/04/23 11:55:26;;;;;;;5.38;4.70;;;14.10;98.00;;;;;;5039225;28;20017;-93
2022/04/23 11:57:56;;;;;;;5.95;5.25;;;14.10;98.00;;;;;;5039011;28;20025;-94
2022/04/23 12:00:24;;;;;;;6.95;5.65;;;14.10;98.00;;;;;;5039043;28;20021;-94
2022/04/23 12:02:49;;;;;;;9.45;5.95;;;14.10;98.10;;;;;;5039365;28;20186;-93
2022/04/23 12:05:42;;;;;;;5.50;4.72;;;14.10;98.10;;;;;;5038833;28;20032;-93
2022/04/23 12:08:21;;;;;;;6.40;4.63;;;14.20;98.00;;;;;;5035662;28;20123;-93
2022/04/23 12:10:46;;;;;;;7.22;4.97;;;14.20;97.90;;;;;;5038782;28;20021;-92
2022/04/23 12:13:13;;;;;;;7.20;5.63;;;14.30;97.90;;;;;;5039023;28;20098;-94
2022/04/23 12:15:46;;;;;;;5.85;5.20;;;14.30;97.90;;;;;;5038907;28;20040;-91
2022/04/23 12:18:17;;;;;;;6.70;5.70;;;14.30;97.80;;;;;;5056564;28;20471;-93
2022/04/23 12:20:43;;;;;;;6.40;4.60;;;14.40;97.80;;;;;;5038398;28;20027;-93
2022/04/23 12:23:09;;;;;;;5.90;4.32;;;14.40;97.70;;;;;;5026865;28;20454;-90
2022/04/23 12:25:36;;;;;;;7.95;5.28;;;14.50;97.60;;;;;;5018368;28;20032;-91
2022/04/23 12:28:03;;;;;;;5.72;5.13;;;14.50;97.60;;;;;;5002790;28;20030;-91
2022/04/23 12:42:00;;;;;;;5.97;4.90;;;14.40;97.70;;;;;;5036422;28;20048;-91
2022/04/23 12:44:36;;;;;;;8.82;5.18;;;14.40;97.70;;;;;;5018346;28;20032;-91
2022/04/23 12:47:05;;;;;;;6.30;5.13;;;14.30;97.90;;;;;;5002911;28;20068;-92
2022/04/23 12:50:02;;;;;;;9.48;5.63;;;14.30;98.00;;;;;;5018476;28;20392;-91
2022/04/23 12:52:31;;;;;;;7.03;5.57;;;14.30;98.20;;;;;;5018282;28;20033;-91
2022/04/23 12:55:24;;;;;;;7.70;5.50;;;14.20;98.50;;;;;;5018242;28;20025;-91
2022/04/23 12:58:04;;;;;;;6.70;5.30;;;14.20;99.00;;;;;;5018222;28;20021;-91
2022/04/23 13:00:36;;;;;;;6.53;5.53;;;14.20;99.00;;;;;;5018144;28;20392;-91
2022/04/23 13:03:34;;;;;;;5.90;5.22;;;14.20;99.50;;;;;;5018511;28;20028;-90
2022/04/23 13:06:00;;;;;;;7.30;5.25;;;14.20;99.60;;;;;;5018686;28;20112;-91
2022/04/23 13:11:25;;;;;;;7.80;5.63;;;14.20;99.90;;;;;;5035905;28;20068;-91
2022/04/23 13:13:54;;;;;;;6.22;5.32;;;14.10;99.90;;;;;;5018511;28;20030;-89
2022/04/23 13:16:21;;;;;;;6.68;5.50;;;14.10;99.90;;;;;;5017395;28;20108;-91
2022/04/23 13:18:47;;;;;;;7.80;5.57;;;14.10;99.90;;;;;;5017798;28;20021;-90
2022/04/23 13:21:13;;;;;;;5.75;5.13;;;14.10;99.90;;;;;;5018273;28;20032;-91
2022/04/23 13:23:39;;;;;;;6.55;5.15;;;14.10;99.90;;;;;;5018106;28;20049;-91
2022/04/23 13:26:05;;;;;;;7.10;5.57;;;14.20;99.80;;;;;;5035463;28;20166;-91
2022/04/23 13:28:30;;;;;;;5.80;4.78;;;14.20;99.80;;;;;;5035089;28;20037;-91
2022/04/23 13:30:56;;;;;;;8.30;5.88;;;14.20;99.60;;;;;;5017239;28;20025;-91
2022/04/23 13:33:22;;;;;;;6.93;5.15;;;14.20;99.60;;;;;;5017638;28;20091;-90